Time;durP1;ratioP1;P1;durP2;ratioP2;P2;SDS_P1;SDS_P2;PMS_P1;PMS_P2;Temp;Humidity;BMP_temperature;BMP_pressure;BME280_temperature;BME280_humidity;BME280_pressure;Samples;Min_cycle;Max_cycle;Signal;HPM_P1;HPM_P2
2021/08/20 00:00:02;;;;;;;8.77;5.38;;;;;;;;;;5093001;28;20039;-80
2021/08/20 00:02:41;;;;;;;8.90;4.97;;;;;;;;;;5114589;28;20060;-80
2021/08/20 00:05:07;;;;;;;6.20;4.68;;;;;;;;;;5095806;28;20036;-80
2021/08/20 00:07:33;;;;;;;6.28;4.55;;;;;;;;;;5112674;28;20051;-80
2021/08/20 00:10:01;;;;;;;5.38;4.35;;;;;;;;;;5095372;28;20070;-80
2021/08/20 00:12:27;;;;;;;5.05;4.50;;;;;;;;;;5094855;28;20036;-80
2021/08/20 00:14:56;;;;;;;8.82;5.65;;;;;;;;;;5094417;28;20035;-80
2021/08/20 00:17:23;;;;;;;9.20;4.55;;;;;;;;;;5113884;28;20126;-80
2021/08/20 00:19:50;;;;;;;7.85;5.30;;;;;;;;;;5095605;28;20052;-80
2021/08/20 00:22:17;;;;;;;9.75;4.95;;;;;;;;;;5112698;28;20103;-80
2021/08/20 00:24:42;;;;;;;9.10;4.78;;;;;;;;;;5112013;28;20034;-80
2021/08/20 00:27:08;;;;;;;6.53;4.93;;;;;;;;;;5094378;28;20349;-80
2021/08/20 00:29:35;;;;;;;8.77;5.20;;;;;;;;;;5112629;28;20100;-80
2021/08/20 00:32:01;;;;;;;11.38;5.45;;;;;;;;;;5095748;28;20036;-80
2021/08/20 00:34:27;;;;;;;10.20;5.50;;;;;;;;;;5094894;28;20119;-80
2021/08/20 00:36:53;;;;;;;11.80;5.63;;;;;;;;;;5095161;28;20047;-80
2021/08/20 00:39:18;;;;;;;6.63;5.20;;;;;;;;;;5111478;28;20404;-80
2021/08/20 00:41:44;;;;;;;9.40;4.70;;;;;;;;;;5094796;28;20099;-79
2021/08/20 00:44:11;;;;;;;8.30;4.60;;;;;;;;;;5110923;28;20051;-80
2021/08/20 00:46:37;;;;;;;9.75;5.35;;;;;;;;;;5094760;28;20040;-80
2021/08/20 00:49:02;;;;;;;9.80;5.80;;;;;;;;;;5110751;28;20103;-80
2021/08/20 00:51:33;;;;;;;9.68;5.93;;;;;;;;;;5094864;28;20184;-80
2021/08/20 00:53:59;;;;;;;8.63;5.53;;;;;;;;;;5111029;28;20040;-80
2021/08/20 00:56:25;;;;;;;8.60;5.28;;;;;;;;;;5104319;28;20027;-80
2021/08/20 00:58:51;;;;;;;7.15;5.55;;;;;;;;;;5097950;28;20120;-80
2021/08/20 01:01:19;;;;;;;5.88;4.90;;;;;;;;;;5074657;28;20124;-79
2021/08/20 01:03:46;;;;;;;7.30;4.97;;;;;;;;;;5073552;28;20033;-79
2021/08/20 01:06:14;;;;;;;9.25;5.30;;;;;;;;;;5091072;28;20039;-79
2021/08/20 01:08:40;;;;;;;9.07;5.80;;;;;;;;;;5089835;28;20504;-80
2021/08/20 01:11:11;;;;;;;6.22;5.20;;;;;;;;;;5073128;28;20025;-80
2021/08/20 01:13:39;;;;;;;9.75;5.15;;;;;;;;;;5089022;28;20468;-80
2021/08/20 01:16:06;;;;;;;7.47;6.07;;;;;;;;;;5089694;28;20040;-79
2021/08/20 01:18:33;;;;;;;9.63;6.60;;;;;;;;;;5089184;28;20036;-80
2021/08/20 01:21:12;;;;;;;15.38;5.82;;;;;;;;;;5072875;28;20028;-79
2021/08/20 01:23:39;;;;;;;8.55;6.30;;;;;;;;;;5073708;28;20116;-79
2021/08/20 01:26:07;;;;;;;9.20;5.38;;;;;;;;;;5111809;28;20028;-79
2021/08/20 01:28:33;;;;;;;14.15;6.38;;;;;;;;;;5096098;28;20034;-79
2021/08/20 01:31:08;;;;;;;9.88;5.43;;;;;;;;;;5113842;28;20028;-79
2021/08/20 01:33:35;;;;;;;8.80;6.05;;;;;;;;;;5112429;28;20040;-79
2021/08/20 01:36:01;;;;;;;8.75;6.00;;;;;;;;;;5095975;28;20104;-79
2021/08/20 01:38:27;;;;;;;11.73;6.15;;;;;;;;;;5111229;28;20500;-79
2021/08/20 01:40:55;;;;;;;16.65;6.05;;;;;;;;;;5094467;28;20035;-79
2021/08/20 01:43:23;;;;;;;8.07;5.43;;;;;;;;;;5099073;28;20047;-79
2021/08/20 01:45:50;;;;;;;10.55;5.40;;;;;;;;;;5097903;28;20028;-80
2021/08/20 01:48:16;;;;;;;11.68;5.22;;;;;;;;;;5113502;28;20028;-79
2021/08/20 01:50:42;;;;;;;13.50;6.57;;;;;;;;;;5111945;28;20125;-79
2021/08/20 01:53:10;;;;;;;9.85;5.85;;;;;;;;;;5093790;28;20126;-79
2021/08/20 01:55:36;;;;;;;8.15;6.38;;;;;;;;;;5109297;28;20043;-79
2021/08/20 01:58:03;;;;;;;11.95;6.45;;;;;;;;;;5108260;28;20437;-79
2021/08/20 02:00:29;;;;;;;11.43;6.28;;;;;;;;;;5124146;28;20074;-79
2021/08/20 02:02:55;;;;;;;7.97;6.22;;;;;;;;;;5107298;28;20039;-79
2021/08/20 02:05:21;;;;;;;8.75;6.32;;;;;;;;;;5107252;28;20487;-80
2021/08/20 02:07:47;;;;;;;18.45;6.22;;;;;;;;;;5123953;28;20043;-79
2021/08/20 02:10:17;;;;;;;9.65;6.03;;;;;;;;;;5106657;28;20084;-80
2021/08/20 02:12:43;;;;;;;18.58;6.65;;;;;;;;;;5106005;28;20035;-80
2021/08/20 02:15:09;;;;;;;14.25;7.85;;;;;;;;;;5126755;28;20040;-80
2021/08/20 02:17:35;;;;;;;12.25;7.57;;;;;;;;;;5111153;28;20047;-79
2021/08/20 02:20:01;;;;;;;11.60;7.50;;;;;;;;;;5112565;28;20032;-79
2021/08/20 02:22:26;;;;;;;8.15;6.25;;;;;;;;;;5111902;28;20039;-80
2021/08/20 02:24:54;;;;;;;7.82;6.65;;;;;;;;;;5113035;28;20127;-80
2021/08/20 02:27:23;;;;;;;11.23;6.25;;;;;;;;;;5083996;28;20077;-79
2021/08/20 02:29:54;;;;;;;9.30;5.88;;;;;;;;;;5073349;28;20028;-80
2021/08/20 02:32:20;;;;;;;12.30;6.82;;;;;;;;;;5072100;28;20036;-80
2021/08/20 02:34:45;;;;;;;8.95;6.38;;;;;;;;;;5071800;28;20044;-79
2021/08/20 02:37:11;;;;;;;10.95;7.13;;;;;;;;;;5070363;28;20032;-79
2021/08/20 02:39:37;;;;;;;10.00;6.95;;;;;;;;;;5086075;28;20122;-80
2021/08/20 02:42:04;;;;;;;12.23;7.20;;;;;;;;;;5086280;28;20064;-80
2021/08/20 02:44:29;;;;;;;17.73;7.13;;;;;;;;;;5087321;28;20036;-79
2021/08/20 02:46:55;;;;;;;10.45;6.53;;;;;;;;;;5086796;28;20031;-79
2021/08/20 02:49:21;;;;;;;18.33;6.30;;;;;;;;;;5069430;28;20071;-79
2021/08/20 02:51:48;;;;;;;9.38;7.05;;;;;;;;;;5086882;28;20052;-79
2021/08/20 02:54:16;;;;;;;13.02;6.55;;;;;;;;;;5086596;28;20032;-79
2021/08/20 02:56:42;;;;;;;10.00;6.63;;;;;;;;;;5086527;28;20500;-79
2021/08/20 02:59:09;;;;;;;10.35;5.90;;;;;;;;;;5108695;28;20027;-79
2021/08/20 03:01:34;;;;;;;8.38;6.13;;;;;;;;;;5110473;28;20042;-79
2021/08/20 03:04:08;;;;;;;10.27;6.45;;;;;;;;;;5112279;28;20054;-79
2021/08/20 03:06:34;;;;;;;19.80;6.75;;;;;;;;;;5110032;28;20065;-79
2021/08/20 03:09:01;;;;;;;8.30;6.93;;;;;;;;;;5111572;28;20039;-79
2021/08/20 03:11:27;;;;;;;14.20;8.20;;;;;;;;;;5114136;28;20107;-80
2021/08/20 03:13:53;;;;;;;12.18;7.13;;;;;;;;;;5131168;28;20035;-79
2021/08/20 03:16:20;;;;;;;12.32;6.45;;;;;;;;;;5114586;28;20028;-79
2021/08/20 03:18:47;;;;;;;10.95;7.47;;;;;;;;;;5113789;28;20035;-79
2021/08/20 03:21:16;;;;;;;12.73;7.43;;;;;;;;;;5113552;28;20118;-79
2021/08/20 03:23:49;;;;;;;12.50;7.10;;;;;;;;;;5114213;28;20056;-79
2021/08/20 03:26:16;;;;;;;11.98;6.93;;;;;;;;;;5098235;28;20058;-79
2021/08/20 03:28:56;;;;;;;9.85;7.70;;;;;;;;;;5095010;28;20093;-79
2021/08/20 03:31:21;;;;;;;14.25;7.82;;;;;;;;;;5093183;28;20024;-80
2021/08/20 03:33:47;;;;;;;13.10;6.97;;;;;;;;;;5110415;28;20048;-79
2021/08/20 03:36:18;;;;;;;13.70;7.68;;;;;;;;;;5110870;28;20095;-80
2021/08/20 03:38:47;;;;;;;8.98;7.15;;;;;;;;;;5094047;28;20028;-80
2021/08/20 03:41:20;;;;;;;9.95;7.32;;;;;;;;;;5093896;28;20062;-80
2021/08/20 03:43:59;;;;;;;12.98;7.95;;;;;;;;;;5110253;28;20078;-79
2021/08/20 03:46:25;;;;;;;12.30;7.97;;;;;;;;;;5108974;28;20033;-79
2021/08/20 03:48:50;;;;;;;12.25;8.00;;;;;;;;;;5092102;28;20032;-79
2021/08/20 03:51:16;;;;;;;14.40;8.63;;;;;;;;;;5092486;28;20022;-79
2021/08/20 03:53:43;;;;;;;11.45;7.60;;;;;;;;;;5091781;28;20031;-79
2021/08/20 03:56:09;;;;;;;19.40;8.48;;;;;;;;;;5109001;28;20489;-79
2021/08/20 03:58:40;;;;;;;13.02;8.93;;;;;;;;;;5109000;28;20048;-79
2021/08/20 04:01:10;;;;;;;16.05;9.55;;;;;;;;;;5093481;28;20035;-80
2021/08/20 04:03:37;;;;;;;13.20;8.88;;;;;;;;;;5091969;28;20028;-80
2021/08/20 04:06:10;;;;;;;15.25;9.48;;;;;;;;;;5109766;28;20028;-80
2021/08/20 04:08:37;;;;;;;14.90;7.55;;;;;;;;;;5091221;28;20035;-79
2021/08/20 04:11:21;;;;;;;12.55;7.93;;;;;;;;;;5105103;28;20078;-80
2021/08/20 04:13:55;;;;;;;9.13;7.55;;;;;;;;;;5120098;28;20034;-80
2021/08/20 04:16:20;;;;;;;13.40;7.82;;;;;;;;;;5114423;28;20031;-80
2021/08/20 04:18:47;;;;;;;11.13;7.53;;;;;;;;;;5114256;28;20035;-80
2021/08/20 04:21:13;;;;;;;8.07;6.82;;;;;;;;;;5114338;28;20053;-80
2021/08/20 04:23:42;;;;;;;8.85;7.10;;;;;;;;;;5114956;28;20107;-80
2021/08/20 04:26:12;;;;;;;8.98;7.20;;;;;;;;;;5074598;28;20036;-80
2021/08/20 04:28:52;;;;;;;15.43;7.38;;;;;;;;;;5075213;28;20032;-79
2021/08/20 04:31:35;;;;;;;13.77;8.20;;;;;;;;;;5076424;28;20052;-80
2021/08/20 04:34:26;;;;;;;11.88;7.70;;;;;;;;;;5082176;28;20045;-80
2021/08/20 04:37:02;;;;;;;12.40;7.30;;;;;;;;;;5074290;28;20067;-79
2021/08/20 04:40:00;;;;;;;12.95;8.15;;;;;;;;;;5085429;28;20029;-80
2021/08/20 04:42:48;;;;;;;10.45;7.93;;;;;;;;;;5075811;28;20028;-79
2021/08/20 04:45:27;;;;;;;18.25;8.43;;;;;;;;;;5091158;28;20020;-79
2021/08/20 04:48:21;;;;;;;10.50;7.28;;;;;;;;;;5072476;28;20040;-80
2021/08/20 04:50:54;;;;;;;10.35;7.53;;;;;;;;;;5090155;28;20401;-80
2021/08/20 04:53:31;;;;;;;8.63;7.72;;;;;;;;;;5108923;28;20031;-80
2021/08/20 04:56:19;;;;;;;12.57;7.75;;;;;;;;;;5116368;28;20023;-80
2021/08/20 04:58:44;;;;;;;12.15;7.97;;;;;;;;;;5114555;28;20023;-79
2021/08/20 05:01:11;;;;;;;10.48;7.63;;;;;;;;;;5117632;28;20039;-80
2021/08/20 05:03:36;;;;;;;15.40;8.50;;;;;;;;;;5117798;28;20031;-80
2021/08/20 05:06:02;;;;;;;11.63;8.23;;;;;;;;;;5134583;28;20032;-80
2021/08/20 05:08:27;;;;;;;13.45;7.68;;;;;;;;;;5133410;28;20047;-80
2021/08/20 05:10:53;;;;;;;19.65;8.02;;;;;;;;;;5117291;28;20043;-80
2021/08/20 05:13:18;;;;;;;10.57;7.80;;;;;;;;;;5132678;28;20107;-80
2021/08/20 05:15:44;;;;;;;11.82;7.20;;;;;;;;;;5134700;28;20019;-80
2021/08/20 05:18:11;;;;;;;8.88;6.40;;;;;;;;;;5116715;28;20035;-80
2021/08/20 05:20:37;;;;;;;10.30;7.25;;;;;;;;;;5115564;28;20035;-80
2021/08/20 05:23:02;;;;;;;12.43;7.60;;;;;;;;;;5110687;28;20038;-80
2021/08/20 05:25:32;;;;;;;9.80;7.45;;;;;;;;;;5112557;28;20036;-80
2021/08/20 05:27:58;;;;;;;11.82;7.00;;;;;;;;;;5095486;28;20575;-80
2021/08/20 05:30:24;;;;;;;11.38;8.77;;;;;;;;;;5094254;28;20095;-80
2021/08/20 05:32:49;;;;;;;15.65;9.23;;;;;;;;;;5111197;28;20127;-80
2021/08/20 05:35:15;;;;;;;11.23;8.35;;;;;;;;;;5094641;28;20040;-79
2021/08/20 05:37:40;;;;;;;13.48;7.55;;;;;;;;;;5093525;28;20028;-80
2021/08/20 05:40:06;;;;;;;10.88;7.80;;;;;;;;;;5094752;28;20109;-80
2021/08/20 05:42:32;;;;;;;18.35;8.38;;;;;;;;;;5109460;28;20031;-80
2021/08/20 05:44:58;;;;;;;9.77;7.43;;;;;;;;;;5093200;28;20173;-79
2021/08/20 05:47:24;;;;;;;9.50;7.85;;;;;;;;;;5110643;28;20032;-79
2021/08/20 05:49:59;;;;;;;11.20;7.97;;;;;;;;;;5108626;28;20043;-79
2021/08/20 05:52:39;;;;;;;16.67;8.63;;;;;;;;;;5094224;28;20512;-79
2021/08/20 05:55:06;;;;;;;9.75;8.20;;;;;;;;;;5113291;28;20169;-79
2021/08/20 05:57:32;;;;;;;15.65;7.97;;;;;;;;;;5113545;28;20072;-79
2021/08/20 05:59:57;;;;;;;9.75;7.55;;;;;;;;;;5093680;28;20062;-79
2021/08/20 06:02:24;;;;;;;17.92;11.48;;;;;;;;;;5110502;28;20034;-79
2021/08/20 06:04:50;;;;;;;19.60;10.07;;;;;;;;;;5093343;28;20103;-79
2021/08/20 06:07:15;;;;;;;11.10;9.02;;;;;;;;;;5110713;28;20062;-79
2021/08/20 06:09:41;;;;;;;11.48;8.77;;;;;;;;;;5093207;28;20103;-79
2021/08/20 06:12:06;;;;;;;11.13;8.23;;;;;;;;;;5092482;28;20020;-79
2021/08/20 06:14:33;;;;;;;13.52;8.70;;;;;;;;;;5091809;28;20065;-79
2021/08/20 06:16:58;;;;;;;12.38;8.60;;;;;;;;;;5089779;28;20130;-80
2021/08/20 06:19:25;;;;;;;12.63;7.68;;;;;;;;;;5097836;28;20031;-79
2021/08/20 06:21:51;;;;;;;11.18;9.00;;;;;;;;;;5096593;28;20032;-80
2021/08/20 06:24:17;;;;;;;13.38;9.65;;;;;;;;;;5113538;28;20032;-80
2021/08/20 06:26:45;;;;;;;12.93;8.93;;;;;;;;;;5096627;28;20054;-79
2021/08/20 06:29:15;;;;;;;13.88;8.00;;;;;;;;;;5094756;28;20058;-79
2021/08/20 06:31:41;;;;;;;12.15;8.43;;;;;;;;;;5112140;28;20032;-79
2021/08/20 06:34:08;;;;;;;14.50;8.35;;;;;;;;;;5091658;28;20047;-79
2021/08/20 06:36:36;;;;;;;14.38;8.95;;;;;;;;;;5108052;28;20036;-81
2021/08/20 06:39:02;;;;;;;16.77;8.85;;;;;;;;;;5096283;28;20042;-79
2021/08/20 06:41:27;;;;;;;12.25;7.93;;;;;;;;;;5095985;28;20047;-80
2021/08/20 06:43:54;;;;;;;11.65;8.55;;;;;;;;;;5095772;28;20042;-80
2021/08/20 06:46:20;;;;;;;12.20;8.55;;;;;;;;;;5096391;28;20083;-79
2021/08/20 06:48:45;;;;;;;16.48;9.23;;;;;;;;;;5095904;28;20036;-79
2021/08/20 06:51:16;;;;;;;11.20;8.25;;;;;;;;;;5095242;28;20570;-79
2021/08/20 06:53:41;;;;;;;11.20;8.25;;;;;;;;;;5111488;28;20032;-79
2021/08/20 06:56:07;;;;;;;11.48;7.75;;;;;;;;;;5111904;28;20031;-79
2021/08/20 06:58:32;;;;;;;13.40;8.43;;;;;;;;;;5093517;28;20122;-79
2021/08/20 07:00:58;;;;;;;10.40;8.30;;;;;;;;;;5093336;28;20040;-79
2021/08/20 07:03:24;;;;;;;8.20;7.05;;;;;;;;;;5092419;28;20036;-79
2021/08/20 07:05:50;;;;;;;14.35;8.43;;;;;;;;;;5092121;28;20071;-79
2021/08/20 07:08:15;;;;;;;9.30;7.93;;;;;;;;;;5107817;28;20032;-79
2021/08/20 07:10:41;;;;;;;10.93;7.32;;;;;;;;;;5089930;28;20043;-79
2021/08/20 07:13:07;;;;;;;11.40;6.78;;;;;;;;;;5103011;28;20096;-79
2021/08/20 07:15:33;;;;;;;9.48;7.63;;;;;;;;;;5086783;28;20035;-79
2021/08/20 07:17:58;;;;;;;11.52;7.97;;;;;;;;;;5104040;28;20057;-79
2021/08/20 07:20:24;;;;;;;10.63;7.22;;;;;;;;;;5103050;28;20028;-79
2021/08/20 07:22:50;;;;;;;10.68;6.80;;;;;;;;;;5103116;28;20401;-79
2021/08/20 07:25:15;;;;;;;9.80;7.03;;;;;;;;;;5094154;28;20037;-80
2021/08/20 07:27:41;;;;;;;12.18;8.38;;;;;;;;;;5067780;28;20036;-79
2021/08/20 07:30:07;;;;;;;11.95;7.95;;;;;;;;;;5067813;28;20037;-79
2021/08/20 07:32:32;;;;;;;15.77;8.95;;;;;;;;;;5068721;28;20024;-79
2021/08/20 07:34:58;;;;;;;9.95;8.27;;;;;;;;;;5086691;28;20045;-79
2021/08/20 07:37:23;;;;;;;10.40;7.68;;;;;;;;;;5087357;28;20490;-79
2021/08/20 07:39:49;;;;;;;13.70;8.23;;;;;;;;;;5088516;28;20494;-79
2021/08/20 07:42:14;;;;;;;15.43;9.63;;;;;;;;;;5069990;28;20059;-79
2021/08/20 07:44:40;;;;;;;11.05;9.32;;;;;;;;;;5070773;28;20040;-80
2021/08/20 07:47:05;;;;;;;12.43;9.35;;;;;;;;;;5071577;28;20123;-80
2021/08/20 07:49:31;;;;;;;14.90;10.52;;;;;;;;;;5072182;28;20040;-79
2021/08/20 07:51:57;;;;;;;11.30;9.30;;;;;;;;;;5072022;28;20055;-79
2021/08/20 07:54:24;;;;;;;11.30;8.50;;;;;;;;;;5078020;28;20057;-80
2021/08/20 07:56:49;;;;;;;12.23;10.13;;;;;;;;;;5132305;28;20039;-80
2021/08/20 07:59:15;;;;;;;17.50;10.25;;;;;;;;;;5080490;28;20051;-80
2021/08/20 08:01:41;;;;;;;24.63;12.68;;;;;;;;;;5072442;28;20280;-80
2021/08/20 08:04:06;;;;;;;13.63;10.52;;;;;;;;;;5072521;28;20024;-80
2021/08/20 08:06:32;;;;;;;13.68;10.25;;;;;;;;;;5071649;28;20066;-80
2021/08/20 08:08:58;;;;;;;14.75;11.05;;;;;;;;;;5088849;28;20043;-80
2021/08/20 08:11:23;;;;;;;14.40;10.95;;;;;;;;;;5072529;28;20028;-80
2021/08/20 08:13:50;;;;;;;18.20;10.93;;;;;;;;;;5079162;28;20035;-79
2021/08/20 08:16:15;;;;;;;14.60;10.40;;;;;;;;;;5108157;28;20036;-80
2021/08/20 08:18:41;;;;;;;20.27;10.30;;;;;;;;;;5091043;28;20036;-80
2021/08/20 08:21:06;;;;;;;16.33;9.80;;;;;;;;;;5090019;28;20036;-80
2021/08/20 08:23:33;;;;;;;15.60;10.13;;;;;;;;;;5096039;28;20023;-81
2021/08/20 08:25:58;;;;;;;16.73;10.40;;;;;;;;;;5133391;28;20035;-81
2021/08/20 08:28:24;;;;;;;13.68;8.52;;;;;;;;;;5114679;28;20069;-81
2021/08/20 08:30:50;;;;;;;13.88;9.60;;;;;;;;;;5115369;28;20039;-81
2021/08/20 08:33:17;;;;;;;12.60;8.73;;;;;;;;;;5114870;28;20055;-81
2021/08/20 08:35:43;;;;;;;15.32;9.55;;;;;;;;;;5114300;28;20035;-81
2021/08/20 08:38:14;;;;;;;11.40;8.68;;;;;;;;;;5130305;28;20544;-81
2021/08/20 08:40:43;;;;;;;10.55;7.65;;;;;;;;;;5112963;28;20036;-81
2021/08/20 08:43:11;;;;;;;15.48;8.30;;;;;;;;;;5112159;28;20069;-81
2021/08/20 08:45:37;;;;;;;10.80;8.00;;;;;;;;;;5113071;28;20039;-81
2021/08/20 08:48:09;;;;;;;11.70;8.32;;;;;;;;;;5129902;28;20031;-81
2021/08/20 08:50:35;;;;;;;14.77;8.95;;;;;;;;;;5112861;28;20028;-81
2021/08/20 08:53:02;;;;;;;13.23;8.80;;;;;;;;;;5112292;28;20027;-81
2021/08/20 08:55:28;;;;;;;13.10;8.65;;;;;;;;;;5073003;28;20029;-82
2021/08/20 08:57:54;;;;;;;12.23;7.93;;;;;;;;;;5089580;28;20466;-81
2021/08/20 09:00:37;;;;;;;13.50;7.75;;;;;;;;;;5087723;28;20547;-81
2021/08/20 09:03:03;;;;;;;11.50;8.00;;;;;;;;;;5072092;28;20093;-81
2021/08/20 09:05:43;;;;;;;10.75;7.72;;;;;;;;;;5071850;28;20052;-81
2021/08/20 09:08:18;;;;;;;10.27;7.20;;;;;;;;;;5087927;28;20040;-81
2021/08/20 09:10:58;;;;;;;15.90;8.20;;;;;;;;;;5071351;28;20017;-81
2021/08/20 09:13:25;;;;;;;9.52;7.47;;;;;;;;;;5074001;28;20119;-81
2021/08/20 09:16:09;;;;;;;8.93;6.55;;;;;;;;;;5089166;28;20065;-81
2021/08/20 09:18:35;;;;;;;12.13;8.35;;;;;;;;;;5106513;28;20032;-81
2021/08/20 09:21:00;;;;;;;10.85;6.63;;;;;;;;;;5091484;28;20051;-80
2021/08/20 09:23:26;;;;;;;7.70;6.13;;;;;;;;;;5092924;28;20039;-81
2021/08/20 09:25:53;;;;;;;6.93;5.47;;;;;;;;;;5093604;28;20096;-81
2021/08/20 09:28:29;;;;;;;8.80;4.93;;;;;;;;;;5092962;28;20031;-81
2021/08/20 09:30:55;;;;;;;11.32;5.60;;;;;;;;;;5092770;28;20496;-80
2021/08/20 09:33:46;;;;;;;8.73;5.25;;;;;;;;;;5108896;28;20039;-81
2021/08/20 09:36:17;;;;;;;7.80;5.25;;;;;;;;;;5108383;28;20036;-80
2021/08/20 09:38:50;;;;;;;7.53;6.38;;;;;;;;;;5091709;28;20036;-80
2021/08/20 09:41:24;;;;;;;11.52;7.75;;;;;;;;;;5090330;28;20036;-80
2021/08/20 09:43:55;;;;;;;9.45;6.70;;;;;;;;;;5091142;28;20036;-80
2021/08/20 09:46:21;;;;;;;13.07;6.68;;;;;;;;;;5094967;28;20066;-80
2021/08/20 09:48:55;;;;;;;9.15;6.63;;;;;;;;;;5094085;28;20067;-80
2021/08/20 09:51:42;;;;;;;10.43;6.22;;;;;;;;;;5092790;28;20028;-81
2021/08/20 09:54:17;;;;;;;9.88;5.28;;;;;;;;;;5072116;28;20032;-81
2021/08/20 09:56:44;;;;;;;6.60;4.60;;;;;;;;;;5072198;28;20104;-81
2021/08/20 09:59:11;;;;;;;7.82;5.28;;;;;;;;;;5087983;28;20058;-81
2021/08/20 10:01:40;;;;;;;6.93;4.72;;;;;;;;;;5070341;28;20047;-82
2021/08/20 10:04:09;;;;;;;7.18;5.10;;;;;;;;;;5069790;28;20037;-81
2021/08/20 10:06:35;;;;;;;7.35;4.90;;;;;;;;;;5073791;28;20040;-82
2021/08/20 10:09:07;;;;;;;7.00;4.82;;;;;;;;;;5074388;28;20068;-82
2021/08/20 10:11:35;;;;;;;9.82;5.55;;;;;;;;;;5090430;28;20039;-81
2021/08/20 10:14:02;;;;;;;7.95;4.60;;;;;;;;;;5072679;28;20123;-81
2021/08/20 10:16:34;;;;;;;7.93;4.70;;;;;;;;;;5089277;28;20036;-82
2021/08/20 10:19:01;;;;;;;9.98;5.10;;;;;;;;;;5089606;28;20105;-82
2021/08/20 10:21:29;;;;;;;6.93;4.35;;;;;;;;;;5089091;28;20478;-81
2021/08/20 10:23:55;;;;;;;7.35;5.18;;;;;;;;;;5112246;28;20106;-81
2021/08/20 10:26:21;;;;;;;5.60;4.13;;;;;;;;;;5094653;28;20024;-81
2021/08/20 10:28:48;;;;;;;10.80;4.93;;;;;;;;;;5108242;28;20063;-81
2021/08/20 10:31:14;;;;;;;6.28;4.25;;;;;;;;;;5093301;28;20036;-81
2021/08/20 10:33:39;;;;;;;4.88;3.47;;;;;;;;;;5093853;28;20052;-82
2021/08/20 10:36:05;;;;;;;7.90;4.60;;;;;;;;;;5093413;28;20104;-81
2021/08/20 10:38:39;;;;;;;7.40;4.72;;;;;;;;;;5108430;28;20040;-81
2021/08/20 10:41:18;;;;;;;5.88;4.07;;;;;;;;;;5091672;28;20470;-81
2021/08/20 10:43:59;;;;;;;6.90;4.20;;;;;;;;;;5090675;28;20036;-81
2021/08/20 10:46:50;;;;;;;4.57;3.72;;;;;;;;;;5107180;28;20061;-81
2021/08/20 10:49:19;;;;;;;6.95;3.90;;;;;;;;;;5090379;28;20036;-81
2021/08/20 10:51:48;;;;;;;5.90;3.47;;;;;;;;;;5090429;28;20032;-81
2021/08/20 10:54:14;;;;;;;6.70;4.55;;;;;;;;;;5090267;28;20040;-81
2021/08/20 10:56:40;;;;;;;7.20;3.80;;;;;;;;;;5106702;28;20040;-81
2021/08/20 10:59:05;;;;;;;7.55;4.38;;;;;;;;;;5089595;28;20035;-81
2021/08/20 11:01:32;;;;;;;8.90;4.00;;;;;;;;;;5107068;28;20064;-81
2021/08/20 11:03:57;;;;;;;6.38;3.83;;;;;;;;;;5106742;28;20117;-81
2021/08/20 11:06:50;;;;;;;6.95;4.18;;;;;;;;;;5089838;28;20043;-81
2021/08/20 11:09:25;;;;;;;6.07;3.53;;;;;;;;;;5089779;28;20036;-81
2021/08/20 11:11:52;;;;;;;5.95;3.90;;;;;;;;;;5090367;28;20387;-81
2021/08/20 11:14:26;;;;;;;5.20;3.60;;;;;;;;;;5088721;28;20024;-81
2021/08/20 11:16:53;;;;;;;12.02;4.53;;;;;;;;;;5089420;28;20051;-81
2021/08/20 11:19:45;;;;;;;10.77;4.45;;;;;;;;;;5105584;28;20079;-82
2021/08/20 11:22:18;;;;;;;6.60;3.97;;;;;;;;;;5090607;28;20473;-81
2021/08/20 11:25:15;;;;;;;6.95;4.28;;;;;;;;;;5121801;28;20118;-81
2021/08/20 11:27:59;;;;;;;5.13;3.42;;;;;;;;;;5104605;28;20093;-81
2021/08/20 11:30:27;;;;;;;6.55;4.00;;;;;;;;;;5109877;28;20032;-81
2021/08/20 11:33:06;;;;;;;7.93;4.20;;;;;;;;;;5108611;28;20562;-81
2021/08/20 11:35:32;;;;;;;9.23;4.07;;;;;;;;;;5108489;28;20044;-81
2021/08/20 11:37:57;;;;;;;7.45;3.92;;;;;;;;;;5107274;28;20069;-82
2021/08/20 11:40:23;;;;;;;5.60;4.40;;;;;;;;;;5088417;28;20035;-81
2021/08/20 11:43:09;;;;;;;5.93;3.65;;;;;;;;;;5106396;28;20451;-81
2021/08/20 11:45:37;;;;;;;5.35;3.90;;;;;;;;;;5103771;28;20032;-81
2021/08/20 11:48:03;;;;;;;5.00;4.00;;;;;;;;;;5087034;28;20058;-81
2021/08/20 11:50:31;;;;;;;6.97;3.38;;;;;;;;;;5087067;28;20066;-81
2021/08/20 11:52:58;;;;;;;6.35;3.63;;;;;;;;;;5085672;28;20397;-82
2021/08/20 11:55:24;;;;;;;10.45;3.53;;;;;;;;;;5107078;28;20031;-81
2021/08/20 11:57:49;;;;;;;3.95;2.80;;;;;;;;;;5107167;28;20038;-81
2021/08/20 12:00:15;;;;;;;5.20;3.05;;;;;;;;;;5126671;28;20035;-81
2021/08/20 12:02:41;;;;;;;5.43;2.60;;;;;;;;;;5106458;28;20477;-82
2021/08/20 12:05:20;;;;;;;5.47;3.13;;;;;;;;;;5107909;28;20031;-81
2021/08/20 12:07:46;;;;;;;6.32;2.53;;;;;;;;;;5107205;28;20046;-81
2021/08/20 12:10:16;;;;;;;4.28;2.80;;;;;;;;;;5107989;28;20035;-81
2021/08/20 12:12:43;;;;;;;6.18;3.25;;;;;;;;;;5123966;28;20027;-81
2021/08/20 12:15:11;;;;;;;5.03;2.97;;;;;;;;;;5086662;28;20040;-81
2021/08/20 12:17:37;;;;;;;5.05;2.60;;;;;;;;;;5086546;28;20036;-81
2021/08/20 12:20:22;;;;;;;3.30;2.53;;;;;;;;;;5103767;28;20035;-81
2021/08/20 12:22:51;;;;;;;;;;;;;;;;;;5087660;28;20043;-81
2021/08/20 12:25:19;;;;;;;4.20;2.63;;;;;;;;;;5093240;28;19935;-81
2021/08/20 12:27:46;;;;;;;6.60;3.00;;;;;;;;;;5081817;28;20490;-82
2021/08/20 12:30:14;;;;;;;4.72;2.38;;;;;;;;;;5065684;28;20032;-81
2021/08/20 12:32:53;;;;;;;6.20;3.08;;;;;;;;;;5065780;28;20059;-81
2021/08/20 12:35:20;;;;;;;3.20;2.38;;;;;;;;;;5065346;28;20483;-81
2021/08/20 12:38:06;;;;;;;6.63;2.63;;;;;;;;;;5083133;28;20040;-81
2021/08/20 12:40:32;;;;;;;;;;;;;;;;;;5083684;28;20032;-81
2021/08/20 12:42:59;;;;;;;5.10;2.58;;;;;;;;;;5070356;28;19916;-81
2021/08/20 12:45:24;;;;;;;15.95;3.40;;;;;;;;;;5070347;28;20044;-81
2021/08/20 12:48:09;;;;;;;16.83;4.03;;;;;;;;;;5070807;28;20032;-81
2021/08/20 12:50:36;;;;;;;12.88;5.63;;;;;;;;;;5070827;28;20058;-81
2021/08/20 12:53:05;;;;;;;23.30;6.30;;;;;;;;;;5075534;28;20032;-81
2021/08/20 12:55:37;;;;;;;6.50;2.85;;;;;;;;;;5090704;28;20063;-81
2021/08/20 12:58:04;;;;;;;4.50;2.90;;;;;;;;;;5108050;28;20032;-81
2021/08/20 13:00:33;;;;;;;6.80;2.47;;;;;;;;;;5107263;28;20040;-80
2021/08/20 13:03:00;;;;;;;4.03;2.42;;;;;;;;;;5107597;28;20035;-81
2021/08/20 13:05:26;;;;;;;19.10;5.22;;;;;;;;;;5090818;28;20103;-81
2021/08/20 13:07:51;;;;;;;12.75;4.35;;;;;;;;;;5090886;28;20043;-81
2021/08/20 13:10:17;;;;;;;12.95;4.50;;;;;;;;;;5107917;28;20032;-81
2021/08/20 13:12:44;;;;;;;23.05;4.95;;;;;;;;;;5106902;28;20032;-81
2021/08/20 13:15:11;;;;;;;14.07;3.90;;;;;;;;;;5108623;28;20440;-80
2021/08/20 13:17:37;;;;;;;6.32;3.38;;;;;;;;;;5086590;28;20072;-81
2021/08/20 13:20:04;;;;;;;5.15;2.70;;;;;;;;;;5070889;28;20043;-81
2021/08/20 13:22:30;;;;;;;4.88;2.92;;;;;;;;;;5073665;28;20070;-80
2021/08/20 13:24:56;;;;;;;10.82;3.35;;;;;;;;;;5102888;28;20139;-81
2021/08/20 13:27:21;;;;;;;5.13;3.17;;;;;;;;;;5131927;28;20035;-81
2021/08/20 13:29:47;;;;;;;7.90;3.80;;;;;;;;;;5115870;28;20053;-81
2021/08/20 13:32:12;;;;;;;5.70;3.60;;;;;;;;;;5114182;28;20027;-81
2021/08/20 13:34:37;;;;;;;9.98;3.95;;;;;;;;;;5118927;28;20238;-81
2021/08/20 13:37:03;;;;;;;8.00;3.33;;;;;;;;;;5119130;28;20054;-81
2021/08/20 13:39:28;;;;;;;6.03;3.38;;;;;;;;;;5136188;28;20404;-80
2021/08/20 13:41:54;;;;;;;6.68;3.60;;;;;;;;;;5118456;28;20032;-81
2021/08/20 13:44:19;;;;;;;5.38;3.03;;;;;;;;;;5118834;28;20066;-81
2021/08/20 13:46:45;;;;;;;5.60;3.70;;;;;;;;;;5114706;28;20043;-81
2021/08/20 13:49:14;;;;;;;9.13;3.95;;;;;;;;;;5114628;28;20020;-81
2021/08/20 13:51:41;;;;;;;9.40;3.83;;;;;;;;;;5114466;28;20035;-80
2021/08/20 13:54:07;;;;;;;6.47;3.78;;;;;;;;;;5125262;28;20397;-80
2021/08/20 13:56:32;;;;;;;7.07;4.13;;;;;;;;;;5117222;28;20040;-81
2021/08/20 13:58:58;;;;;;;9.95;3.65;;;;;;;;;;5117005;28;20043;-80
2021/08/20 14:01:24;;;;;;;9.57;4.65;;;;;;;;;;5133410;28;20035;-80
2021/08/20 14:03:50;;;;;;;6.68;3.92;;;;;;;;;;5117185;28;20065;-80
2021/08/20 14:06:15;;;;;;;8.70;3.88;;;;;;;;;;5117393;28;20484;-80
2021/08/20 14:08:41;;;;;;;6.55;3.90;;;;;;;;;;5115939;28;20040;-80
2021/08/20 14:11:07;;;;;;;4.45;3.58;;;;;;;;;;5115771;28;20035;-80
2021/08/20 14:13:34;;;;;;;7.88;4.35;;;;;;;;;;5132789;28;20042;-80
2021/08/20 14:16:00;;;;;;;5.20;3.53;;;;;;;;;;5114789;28;20503;-80
2021/08/20 14:18:26;;;;;;;5.90;4.30;;;;;;;;;;5114677;28;20031;-80
2021/08/20 14:20:52;;;;;;;7.30;4.53;;;;;;;;;;5115230;28;20061;-80
2021/08/20 14:23:18;;;;;;;6.20;3.83;;;;;;;;;;5113261;28;20043;-81
2021/08/20 14:25:49;;;;;;;6.40;4.00;;;;;;;;;;5130674;28;20040;-81
2021/08/20 14:28:15;;;;;;;5.47;4.55;;;;;;;;;;5131455;28;20039;-80
2021/08/20 14:30:40;;;;;;;7.28;4.53;;;;;;;;;;5131810;28;20039;-80
2021/08/20 14:33:05;;;;;;;5.90;3.95;;;;;;;;;;5114878;28;20078;-80
2021/08/20 14:35:34;;;;;;;5.25;3.70;;;;;;;;;;5113786;28;20044;-80
2021/08/20 14:37:59;;;;;;;6.32;3.72;;;;;;;;;;5114206;28;20051;-80
2021/08/20 14:40:25;;;;;;;7.80;4.38;;;;;;;;;;5112781;28;20043;-81
2021/08/20 14:42:50;;;;;;;6.63;3.88;;;;;;;;;;5131005;28;20061;-80